Airfield :
LOGIN :

Register | Disclaimer

   EN    FR    IT 

 










Legend :    VFR   Marginal VFR   IFR   Intensive IFR   Very Intensive IFR
Visi :
Ceiling :
>= 8 km
>= 3000ft
5 to 8 km
1000 to 3000 ft
1500m to 5 km
500 to 1000 ft
800 to 1500m
200 to 500 ft
< 800m
< 200 ft
Symbols :   Thunderstorms  Fog  Heavy snow  Heavy precipitations  Wind > 20 kt
SIGMETs :     Misc.  Thunderstorms  Icing  Turbulence  Mountain Waves  Volcanic Ashes






- Airport Elevation : 204 ft
- IATA code : AGF


LFBA - Agen

CURRENT METAR :
  • 060030Z AUTO 23011KT 9999 -RADZ SCT012 BKN044 BKN054 07/05 Q0999

EXPIRED METARs :
  • 060000Z AUTO 23011KT 200V260 9999 -DZ NSC 07/05 Q0999
  • 052330Z AUTO 23012KT 210V270 9999 -RA NSC 07/05 Q0999
  • 052300Z AUTO 24014KT 9999 FEW049 SCT100 BKN120 07/05 Q0999
  • 052230Z AUTO 25012KT 9999 FEW013/// OVC110/// ///TCU 07/05 Q0999

TAF AMD TAF LFBA
Valid from the 05 at 19:00 until the 06 at 03:00 UTC


051906Z 0519/0603 23008KT 9999 BKN030
TEMPO 0519/0603 24015G25KT BKN009
PROB30
TEMPO 0519/0603 4000 SHRA BKN014 BKN018TCU BKN030



MET'MAP, your aeronautical weather chart ! - Copyright ORBIFLY December 2007 - Disclaimer

ORBIFLY MET'MAP TEAM :

Programming & Development : Alexandra Zaïnal
Concept & original design : Baudouin d'Aumeries
Assistance for programming : Marc-Olivier Méhu
Technical & hardware support : Manuel Goepfert

Contact : metmap@orbifly.com




SOURCES & CREDITS :

   NOAA